createdAt,value
2022-12-22T00:02:01.641Z,99537.53
2022-12-22T00:05:38.064Z,99527.91
2022-12-22T00:09:05.083Z,99528.66
2022-12-22T00:12:29.958Z,99528.44
2022-12-22T00:15:53.532Z,99522.31
2022-12-22T00:19:14.282Z,99514.47
2022-12-22T00:22:39.838Z,99510.88
2022-12-22T00:26:00.184Z,99505.81
2022-12-22T00:29:21.627Z,99504.00
2022-12-22T00:32:44.045Z,99512.06
2022-12-22T00:36:04.481Z,99498.84
2022-12-22T00:39:31.398Z,99495.25
2022-12-22T00:42:51.749Z,99496.19
2022-12-22T00:46:12.615Z,99492.72
2022-12-22T00:49:33.591Z,99488.06
2022-12-22T00:52:54.307Z,99497.78
2022-12-22T00:56:14.949Z,99497.66
2022-12-22T00:59:35.227Z,99484.25
2022-12-22T01:02:55.794Z,99473.66
2022-12-22T01:06:19.466Z,99468.38
2022-12-22T01:09:41.464Z,99460.47
2022-12-22T01:13:02.723Z,99465.84
2022-12-22T01:16:23.236Z,99462.25
2022-12-22T01:19:43.651Z,99462.16
2022-12-22T01:23:04.163Z,99462.16
2022-12-22T01:26:29.770Z,99448.09
2022-12-22T01:29:50.218Z,99449.66
2022-12-22T01:33:10.513Z,99440.88
2022-12-22T01:36:30.865Z,99445.34
2022-12-22T01:39:51.184Z,99446.28
2022-12-22T01:43:11.661Z,99440.78
2022-12-22T01:46:52.911Z,99440.03
2022-12-22T01:50:13.299Z,99431.59
2022-12-22T01:53:39.777Z,99440.25
2022-12-22T01:57:00.893Z,99434.34
2022-12-22T02:00:21.815Z,99431.38
2022-12-22T02:03:42.391Z,99428.97
2022-12-22T02:07:05.631Z,99423.69
2022-12-22T02:10:29.074Z,99422.94
2022-12-22T02:13:55.023Z,99426.88
2022-12-22T02:17:18.501Z,99430.03
2022-12-22T02:20:49.995Z,99431.81
2022-12-22T02:24:22.518Z,99415.34
2022-12-22T02:27:44.833Z,99421.25
2022-12-22T02:31:07.957Z,99421.47
2022-12-22T02:34:34.331Z,99426.75
2022-12-22T02:38:16.310Z,99428.66
2022-12-22T02:41:48.605Z,99423.16
2022-12-22T02:45:55.556Z,99426.34
2022-12-22T02:49:33.950Z,99418.72
2022-12-22T02:52:57.030Z,99419.16
2022-12-22T02:56:25.063Z,99416.63
2022-12-22T02:59:45.820Z,99407.75
2022-12-22T03:03:06.255Z,99397.38
2022-12-22T03:06:26.880Z,99405.09
2022-12-22T03:09:47.308Z,99406.91
2022-12-22T03:13:07.644Z,99401.63
2022-12-22T03:16:27.934Z,99403.31
2022-12-22T03:19:48.331Z,99398.25
2022-12-22T03:23:08.713Z,99400.78
2022-12-22T03:26:10.728Z,99392.94
2022-12-22T03:29:12.657Z,99397.63
2022-12-22T03:32:14.482Z,99394.84
2022-12-22T03:35:16.412Z,99392.53
2022-12-22T03:38:18.253Z,99398.66
2022-12-22T03:41:39.009Z,99406.94
2022-12-22T03:44:59.563Z,99406.94
2022-12-22T03:48:01.464Z,99411.88
2022-12-22T03:51:03.370Z,99406.50
2022-12-22T03:54:05.279Z,99402.91
2022-12-22T03:57:07.154Z,99403.53
2022-12-22T04:00:09.393Z,99394.22
2022-12-22T04:03:14.355Z,99388.72
2022-12-22T04:06:17.559Z,99398.44
2022-12-22T04:09:19.504Z,99401.09
2022-12-22T04:12:39.748Z,99405.84
2022-12-22T04:15:41.569Z,99402.13
2022-12-22T04:18:43.354Z,99399.25
2022-12-22T04:21:45.225Z,99396.72
2022-12-22T04:24:47.147Z,99389.75
2022-12-22T04:27:49.052Z,99396.94
2022-12-22T04:30:51.184Z,99395.88
2022-12-22T04:33:53.172Z,99393.97
2022-12-22T04:36:56.070Z,99396.41
2022-12-22T04:40:00.849Z,99390.50
2022-12-22T04:43:02.787Z,99397.97
2022-12-22T04:46:05.792Z,99393.44
2022-12-22T04:49:07.614Z,99398.59
2022-12-22T04:52:09.521Z,99399.00
2022-12-22T04:55:11.521Z,99397.81
2022-12-22T04:58:13.757Z,99400.69
2022-12-22T05:01:18.083Z,99396.44
2022-12-22T05:04:23.722Z,99405.09
2022-12-22T05:07:25.823Z,99404.97
2022-12-22T05:10:28.233Z,99407.19
2022-12-22T05:13:31.832Z,99411.28
2022-12-22T05:16:33.737Z,99417.91
2022-12-22T05:19:35.565Z,99411.69
2022-12-22T05:22:37.432Z,99416.13
2022-12-22T05:25:39.325Z,99412.91
2022-12-22T05:28:42.431Z,99418.72
2022-12-22T05:31:47.297Z,99422.34
2022-12-22T05:34:49.576Z,99418.66
2022-12-22T05:37:51.522Z,99420.50
2022-12-22T05:40:58.257Z,99425.56
2022-12-22T05:44:03.734Z,99433.16
2022-12-22T05:47:05.546Z,99431.00
2022-12-22T05:50:08.703Z,99430.88
2022-12-22T05:53:10.554Z,99439.44
2022-12-22T05:56:12.396Z,99439.31
2022-12-22T05:59:14.424Z,99441.97
2022-12-22T06:02:16.513Z,99436.56
2022-12-22T06:05:18.536Z,99434.75
2022-12-22T06:08:20.886Z,99439.81
2022-12-22T06:11:22.992Z,99439.09
2022-12-22T06:14:24.864Z,99433.81
2022-12-22T06:17:26.684Z,99435.88
2022-12-22T06:20:28.576Z,99425.16
2022-12-22T06:23:30.460Z,99431.53
2022-12-22T06:26:32.514Z,99420.81
2022-12-22T06:29:34.503Z,99435.75
2022-12-22T06:32:37.458Z,99433.84
2022-12-22T06:35:39.180Z,99426.13
2022-12-22T06:38:41.128Z,99432.53
2022-12-22T06:42:01.835Z,99437.34
2022-12-22T06:45:03.897Z,99439.88
2022-12-22T06:48:06.076Z,99442.19
2022-12-22T06:51:08.045Z,99454.84
2022-12-22T06:54:10.057Z,99441.59
2022-12-22T06:57:11.892Z,99438.09
2022-12-22T07:00:14.317Z,99441.25
2022-12-22T07:03:16.458Z,99439.19
2022-12-22T07:06:18.581Z,99444.97
2022-12-22T07:09:20.383Z,99444.75
2022-12-22T07:12:23.574Z,99449.19
2022-12-22T07:15:25.471Z,99447.03
2022-12-22T07:18:29.587Z,99445.22
2022-12-22T07:21:31.673Z,99450.19
2022-12-22T07:24:33.791Z,99456.94
2022-12-22T07:27:35.653Z,99444.75
2022-12-22T07:30:39.449Z,99441.25
2022-12-22T07:33:41.291Z,99453.06
2022-12-22T07:36:43.382Z,99453.06
2022-12-22T07:39:45.298Z,99450.31
2022-12-22T07:42:47.356Z,99452.84
2022-12-22T07:45:49.192Z,99449.69
2022-12-22T07:49:09.561Z,99441.28
2022-12-22T07:52:11.398Z,99433.19
2022-12-22T07:55:14.214Z,99442.84
2022-12-22T07:58:16.064Z,99443.69
2022-12-22T08:01:17.922Z,99439.59
2022-12-22T08:04:19.918Z,99446.44
2022-12-22T08:07:21.785Z,99428.63
2022-12-22T08:10:23.733Z,99432.22
2022-12-22T08:13:25.706Z,99421.63
2022-12-22T08:16:27.669Z,99429.34
2022-12-22T08:19:29.677Z,99428.00
2022-12-22T08:22:31.624Z,99426.78
2022-12-22T08:25:35.025Z,99416.19
2022-12-22T08:28:43.389Z,99415.59
2022-12-22T08:31:45.626Z,99408.22
2022-12-22T08:34:50.860Z,99400.84
2022-12-22T08:37:53.327Z,99395.44
2022-12-22T08:40:55.249Z,99390.00
2022-12-22T08:43:57.178Z,99381.56
2022-12-22T08:46:59.750Z,99371.91
2022-12-22T09:48:39.829Z,99346.22
2022-12-22T09:51:48.397Z,99341.50
2022-12-22T09:54:50.760Z,99341.84
2022-12-22T09:57:56.037Z,99336.13
2022-12-22T10:01:20.027Z,99323.44
2022-12-22T10:04:52.597Z,99322.47
2022-12-22T10:08:01.914Z,99319.50
2022-12-22T10:11:04.165Z,99307.78
2022-12-22T10:14:10.959Z,99319.44
2022-12-22T10:17:29.443Z,99315.69
2022-12-22T10:20:31.268Z,99313.88
2022-12-22T10:23:46.569Z,99309.00
2022-12-22T10:26:51.911Z,99322.88
2022-12-22T10:29:53.786Z,99311.28
2022-12-22T10:33:18.972Z,99323.00
2022-12-22T10:36:27.178Z,99318.34
2022-12-22T10:39:36.735Z,99319.50
2022-12-22T10:42:38.726Z,99317.41
2022-12-22T10:45:48.429Z,99318.25
2022-12-22T10:48:50.409Z,99320.66
2022-12-22T10:52:11.891Z,99318.59
2022-12-22T10:55:19.582Z,99324.75
2022-12-22T10:58:21.795Z,99326.41
2022-12-22T11:01:32.384Z,99321.81
2022-12-22T11:04:34.222Z,99323.06
2022-12-22T11:07:41.073Z,99319.03
2022-12-22T11:11:05.436Z,99317.75
2022-12-22T11:14:16.430Z,99311.59
2022-12-22T11:17:33.573Z,99323.06
2022-12-22T11:21:03.406Z,99304.34
2022-12-22T11:24:25.441Z,99321.09
2022-12-22T11:27:45.536Z,99314.25
2022-12-22T11:31:18.299Z,99303.22
2022-12-22T11:34:39.244Z,99306.84
2022-12-22T11:37:53.357Z,99304.72
2022-12-22T11:41:13.403Z,99312.44
2022-12-22T11:44:47.473Z,99303.50
2022-12-22T11:48:22.182Z,99296.75
2022-12-22T11:51:29.852Z,99310.47
2022-12-22T11:54:51.692Z,99304.00
2022-12-22T11:58:08.647Z,99304.28
2022-12-22T12:01:24.046Z,99303.19
2022-12-22T12:04:46.167Z,99310.09
2022-12-22T12:08:02.930Z,99316.59
2022-12-22T12:11:43.405Z,99329.28
2022-12-22T12:15:20.527Z,99324.81
2022-12-22T12:18:37.620Z,99321.31
2022-12-22T12:22:00.271Z,99325.06
2022-12-22T12:25:19.849Z,99320.34
2022-12-22T12:28:47.845Z,99319.25
2022-12-22T12:31:55.432Z,99315.88
2022-12-22T12:35:20.018Z,99311.09
2022-12-22T12:39:05.667Z,99317.81
2022-12-22T12:42:00.169Z,99313.22
2022-12-22T12:45:02.614Z,99315.75
2022-12-22T12:48:37.255Z,99318.13
2022-12-22T12:51:51.916Z,99320.09
2022-12-22T12:55:31.679Z,99310.56
2022-12-22T12:58:39.964Z,99312.13
2022-12-22T13:01:41.946Z,99314.91
2022-12-22T13:05:08.067Z,99313.47
2022-12-22T13:08:55.416Z,99316.72
2022-12-22T13:12:53.261Z,99311.41
2022-12-22T13:16:01.220Z,99305.50
2022-12-22T13:19:19.346Z,99309.84
2022-12-22T13:22:21.431Z,99304.81
2022-12-22T13:25:27.191Z,99305.50
2022-12-22T13:28:29.764Z,99308.88
2022-12-22T13:31:36.624Z,99307.19
2022-12-22T13:35:28.552Z,99304.66
2022-12-22T13:38:27.526Z,99310.69
2022-12-22T13:41:29.929Z,99312.50
2022-12-22T13:44:33.829Z,99314.31
2022-12-22T13:47:41.840Z,99315.28
2022-12-22T13:50:50.960Z,99318.06
2022-12-22T13:54:12.687Z,99327.97
2022-12-22T13:57:22.085Z,99326.75
2022-12-22T14:00:26.450Z,99320.03
2022-12-22T14:03:58.262Z,99314.56
2022-12-22T14:06:50.177Z,99308.94
2022-12-22T14:09:56.302Z,99307.25
2022-12-22T14:13:00.954Z,99294.97
2022-12-22T14:16:05.601Z,99293.03
2022-12-22T14:19:07.549Z,99304.75
2022-12-22T14:22:15.122Z,99302.22
2022-12-22T14:25:21.028Z,99305.31
2022-12-22T14:28:27.902Z,99308.94
2022-12-22T14:31:29.790Z,99303.78
2022-12-22T14:34:33.637Z,99313.41
2022-12-22T14:37:36.659Z,99314.25
2022-12-22T14:40:39.435Z,99309.47
2022-12-22T14:43:41.358Z,99298.47
2022-12-22T14:46:44.579Z,99300.16
2022-12-22T14:49:53.439Z,99300.00
2022-12-22T14:52:58.364Z,99303.63
2022-12-22T14:56:00.421Z,99298.59
2022-12-22T14:59:23.647Z,99292.31
2022-12-22T15:02:34.975Z,99300.28
2022-12-22T15:05:39.216Z,99292.81
2022-12-22T15:08:44.544Z,99298.97
2022-12-22T15:12:14.324Z,99301.88
2022-12-22T15:15:21.783Z,99306.22
2022-12-22T15:18:27.346Z,99306.22
2022-12-22T15:21:29.150Z,99307.91
2022-12-22T15:24:31.077Z,99310.56
2022-12-22T15:27:32.922Z,99308.03
2022-12-22T15:30:35.950Z,99306.09
2022-12-22T15:33:37.979Z,99305.25
2022-12-22T15:36:39.786Z,99297.69
2022-12-22T15:39:41.655Z,99308.31
2022-12-22T15:42:43.633Z,99305.66
2022-12-22T15:45:46.464Z,99304.94
2022-12-22T15:48:48.403Z,99309.53
2022-12-22T15:51:54.832Z,99305.91
2022-12-22T15:54:56.746Z,99310.63
2022-12-22T15:57:59.422Z,99312.44
2022-12-22T16:01:01.403Z,99315.81
2022-12-22T16:04:03.336Z,99313.41
2022-12-22T16:07:05.569Z,99307.84
2022-12-22T16:10:28.630Z,99318.47
2022-12-22T16:13:30.608Z,99327.13
2022-12-22T16:16:32.646Z,99332.44
2022-12-22T16:19:34.477Z,99322.78
2022-12-22T16:22:37.559Z,99322.66
2022-12-22T16:25:40.150Z,99316.25
2022-12-22T16:28:42.055Z,99310.13
2022-12-22T16:31:43.964Z,99308.56
2022-12-22T16:34:45.927Z,99309.53
2022-12-22T16:37:51.131Z,99313.88
2022-12-22T16:40:53.628Z,99314.72
2022-12-22T16:44:03.783Z,99316.53
2022-12-22T16:47:13.972Z,99310.50
2022-12-22T16:50:19.480Z,99324.22
2022-12-22T16:53:21.419Z,99316.13
2022-12-22T16:56:28.087Z,99316.06
2022-12-22T16:59:29.967Z,99319.75
2022-12-22T17:02:34.589Z,99325.31
2022-12-22T17:05:44.448Z,99319.44
2022-12-22T17:08:47.195Z,99325.31
2022-12-22T17:11:49.560Z,99324.22
2022-12-22T17:14:52.632Z,99325.19
2022-12-22T17:17:54.491Z,99325.66
2022-12-22T17:20:58.549Z,99336.13
2022-12-22T17:24:04.422Z,99330.00
2022-12-22T17:27:06.318Z,99323.84
2022-12-22T17:30:19.674Z,99328.19
2022-12-22T17:33:21.778Z,99317.56
2022-12-22T17:36:33.378Z,99313.09
2022-12-22T17:39:38.551Z,99317.94
2022-12-22T17:42:40.566Z,99323.97
2022-12-22T17:45:44.459Z,99323.00
2022-12-22T17:48:47.111Z,99323.00
2022-12-22T17:51:49.107Z,99314.19
2022-12-22T17:54:52.993Z,99312.25
2022-12-22T17:57:55.084Z,99309.47
2022-12-22T18:00:56.918Z,99318.13
2022-12-22T18:03:58.886Z,99310.31
2022-12-22T18:07:00.916Z,99312.84
2022-12-22T18:10:02.766Z,99312.00
2022-12-22T18:13:07.997Z,99303.31
2022-12-22T18:16:15.920Z,99313.94
2022-12-22T18:19:17.793Z,99312.84
2022-12-22T18:22:21.830Z,99306.81
2022-12-22T18:25:30.039Z,99313.81
2022-12-22T18:28:31.900Z,99309.47
2022-12-22T18:31:34.220Z,99306.22
2022-12-22T18:34:37.861Z,99310.44
2022-12-22T18:37:40.534Z,99313.94
2022-12-22T18:40:42.426Z,99318.41
2022-12-22T18:43:44.348Z,99313.22
2022-12-22T18:46:47.294Z,99316.59
2022-12-22T18:49:49.136Z,99309.00
2022-12-22T18:52:52.491Z,99309.97
2022-12-22T18:55:55.030Z,99303.84
2022-12-22T18:58:56.866Z,99306.34
2022-12-22T19:02:16.879Z,99307.06
2022-12-22T19:05:24.906Z,99308.03
2022-12-22T19:08:27.745Z,99307.06
2022-12-22T19:11:31.893Z,99308.03
2022-12-22T19:14:33.862Z,99307.06
2022-12-22T19:17:35.766Z,99298.53
2022-12-22T19:20:37.618Z,99308.31
2022-12-22T19:23:39.426Z,99303.69
2022-12-22T19:26:41.750Z,99302.72
2022-12-22T19:29:45.596Z,99304.41
2022-12-22T19:32:52.034Z,99306.94
2022-12-22T19:35:54.383Z,99315.03
2022-12-22T19:39:04.024Z,99313.09
2022-12-22T19:42:13.858Z,99314.19
2022-12-22T19:45:22.012Z,99323.97
2022-12-22T19:48:26.537Z,99321.06
2022-12-22T19:51:28.963Z,99323.72
2022-12-22T19:54:32.378Z,99320.94
2022-12-22T19:57:40.685Z,99322.47
2022-12-22T20:00:43.187Z,99319.97
2022-12-22T20:03:45.258Z,99318.97
2022-12-22T20:06:47.223Z,99329.84
2022-12-22T20:09:49.543Z,99323.72
2022-12-22T20:12:54.239Z,99323.44
2022-12-22T20:15:56.108Z,99324.69
2022-12-22T20:18:58.016Z,99325.41
2022-12-22T20:21:59.923Z,99329.03
2022-12-22T20:25:01.912Z,99327.06
2022-12-22T20:28:11.229Z,99325.25
2022-12-22T20:31:15.407Z,99317.56
2022-12-22T20:34:17.961Z,99327.06
2022-12-22T20:37:19.837Z,99319.97
2022-12-22T20:40:27.861Z,99312.84
2022-12-22T20:43:31.463Z,99311.84
2022-12-22T20:46:33.556Z,99312.97
2022-12-22T20:49:35.494Z,99307.78
2022-12-22T20:52:37.463Z,99314.50
2022-12-22T20:55:40.394Z,99308.22
2022-12-22T20:58:42.133Z,99305.00
2022-12-22T21:01:45.062Z,99299.44
2022-12-22T21:04:46.954Z,99305.59
2022-12-22T21:07:49.571Z,99306.28
2022-12-22T21:10:53.334Z,99296.66
2022-12-22T21:13:56.727Z,99298.59
2022-12-22T21:16:59.821Z,99294.97
2022-12-22T21:20:01.711Z,99284.09
2022-12-22T21:23:03.607Z,99279.03
2022-12-22T21:26:15.357Z,99271.06
2022-12-22T21:29:22.261Z,99273.22
2022-12-22T21:32:24.102Z,99272.09
2022-12-22T21:35:36.476Z,99284.53
2022-12-22T21:38:38.339Z,99283.56
2022-12-22T21:41:58.869Z,99285.25
2022-12-22T21:45:00.850Z,99286.22
2022-12-22T21:48:02.799Z,99286.22
2022-12-22T21:51:04.734Z,99286.34
2022-12-22T21:54:06.573Z,99274.88
2022-12-22T21:57:15.447Z,99279.63
2022-12-22T22:00:19.738Z,99282.84
2022-12-22T22:03:21.614Z,99273.78
2022-12-22T22:06:23.616Z,99286.22
2022-12-22T22:09:25.589Z,99267.06
2022-12-22T22:12:33.295Z,99278.50
2022-12-22T22:15:35.493Z,99278.50
2022-12-22T22:18:38.010Z,99276.13
2022-12-22T22:21:39.939Z,99262.00
2022-12-22T22:24:41.793Z,99265.38
2022-12-22T22:27:47.658Z,99262.97
2022-12-22T22:30:50.103Z,99258.78
2022-12-22T22:33:52.111Z,99251.53
2022-12-22T22:36:53.927Z,99251.38
2022-12-22T22:39:55.764Z,99252.63
2022-12-22T22:42:57.724Z,99251.78
2022-12-22T22:45:59.582Z,99249.97
2022-12-22T22:49:01.503Z,99263.09
2022-12-22T22:52:03.562Z,99261.44
2022-12-22T22:55:05.917Z,99265.06
2022-12-22T22:58:08.712Z,99260.59
2022-12-22T23:01:11.500Z,99260.59
2022-12-22T23:04:13.516Z,99261.44
2022-12-22T23:07:15.389Z,99261.44
2022-12-22T23:10:17.256Z,99270.22
2022-12-22T23:13:19.212Z,99264.34
2022-12-22T23:16:21.767Z,99267.56
2022-12-22T23:19:24.558Z,99256.81
2022-12-22T23:22:26.449Z,99256.56
2022-12-22T23:25:28.326Z,99263.56
2022-12-22T23:28:30.262Z,99251.13
2022-12-22T23:31:33.481Z,99257.28
2022-12-22T23:34:36.524Z,99254.63
2022-12-22T23:37:38.158Z,99250.41
2022-12-22T23:40:52.347Z,99261.63
2022-12-22T23:43:55.718Z,99249.44
2022-12-22T23:46:57.563Z,99243.28
2022-12-22T23:49:59.861Z,99245.94
2022-12-22T23:53:01.849Z,99250.28
2022-12-22T23:56:04.317Z,99246.91
2022-12-22T23:59:06.221Z,99245.94
